Terminal Aerodrome Forecast
Issued by NWS Boise, ID

Home | Current Version | Previous Version | Text Only | Print | Product List | Glossary On
Versions: 1 2 3 4 5 6 7 8 9 10 11 12 13 14 15 16 17 18 19 20 21 22 23 24 25 26 27 28 29 30 31 32 33 34 35 36 37 38
000
FTUS45 KBOI 290217 AAB
TAFBNO
TAF AMD
KBNO 290217Z 2902/2924 29010KT P6SM VCSH FEW025 BKN050
      TEMPO 2902/2906 1SM -SN BR OVC015
     FM290600 27008KT P6SM VCSH OVC025
      TEMPO 2906/2910 1SM -SN BR OVC015
     FM291000 26005KT P6SM VCSH OVC015
      TEMPO 2910/2914 1SM -SN BR OVC010
     FM291800 32010KT P6SM SCT015 BKN050=

USA.gov is the U.S. government's official web portal to all federal, state and local government web resources and services.